Sara Regina — ERYP — position and weather

sailwx.info

Track history (hours):
 
Tides and Currents Weather Stations Pressure Air Temp Water Temp Dewpoint Dewpoint Depression Visibility Wind Speed Wind Dir Waves Ship Positions

Sara Regina

Last reported at 2018-Jun-24 01:47 UTC. Time now 2018-Jun-25 11:51 UTC.
Position N 25°27' W 079°53'.

Length 91 m; draft 3.9 m.

Type: Cargo ship. MMSI: 214182516.

Date/timePositionNaut miles runAvg speedWind from/ knotsBaromVisibWave heightAir tempDewpointWater temp
2018-Jun-24 01:47N 25°27' W 079°53'3 9.3
2018-Jun-24 01:30N 25°29' W 079°54'5 9.3
2018-Jun-24 01:00N 25°33' W 079°56'5 9.4
2018-Jun-24 00:30N 25°37' W 079°59'5 9.8
2018-Jun-24 00:00N 25°42' W 080°01'5 9.9
2018-Jun-23 23:30N 25°46' W 080°04'510.3
2018-Jun-23 23:01N 25°46' W 080°10'2 3.5
2018-Jun-23 22:30N 25°46' W 080°11'1 2.8
2018-Jun-23 22:00N 25°47' W 080°13'1 2.9
2018-Jun-23 21:31N 25°47' W 080°14'0 0.8
2018-Jun-23 21:01N 25°48' W 080°15'0 0.3
2018-Jun-23 20:30N 25°48' W 080°15'0 0.0
2018-Jun-23 20:00N 25°48' W 080°15'0 0.0
2018-Jun-23 19:30N 25°48' W 080°15'0 0.0
2018-Jun-23 19:00N 25°48' W 080°15'0 0.0
2018-Jun-23 18:30N 25°48' W 080°15'0 0.0
2018-Jun-23 18:00N 25°48' W 080°15'0 0.0
2018-Jun-23 17:30N 25°48' W 080°15'0 0.0
2018-Jun-23 17:00N 25°48' W 080°15'0 0.0
2018-Jun-23 16:30N 25°48' W 080°15'0 0.0
2018-Jun-23 16:00N 25°48' W 080°15'0 0.0
2018-Jun-23 15:30N 25°48' W 080°15'0 0.0
2018-Jun-23 15:00N 25°48' W 080°15'0 0.0
2018-Jun-23 14:29N 25°48' W 080°15'0 0.0
2018-Jun-23 14:00N 25°48' W 080°15'0 0.0
2018-Jun-23 13:30N 25°48' W 080°15'0 0.0
2018-Jun-23 13:00N 25°48' W 080°15'0 0.0
2018-Jun-23 12:30N 25°48' W 080°15'0 0.0
2018-Jun-23 12:01N 25°48' W 080°15'0 0.0
2018-Jun-23 11:30N 25°48' W 080°15'0 0.0
2018-Jun-23 11:01N 25°48' W 080°15'0 0.0
2018-Jun-23 10:30N 25°48' W 080°15'0 0.0
2018-Jun-23 10:00N 25°48' W 080°15'0 0.0
2018-Jun-23 09:30N 25°48' W 080°15'0 0.0
2018-Jun-23 09:00N 25°48' W 080°15'0 0.0
2018-Jun-23 08:30N 25°48' W 080°15'0 0.0
2018-Jun-23 08:00N 25°48' W 080°15'0 0.0
2018-Jun-23 07:30N 25°48' W 080°15'0 0.0
2018-Jun-23 07:00N 25°48' W 080°15'0 0.0
2018-Jun-23 06:30N 25°48' W 080°15'0 0.0
2018-Jun-23 06:00N 25°48' W 080°15'0 0.0
2018-Jun-23 05:30N 25°48' W 080°15'0 0.0
2018-Jun-23 05:00N 25°48' W 080°15'0 0.0
2018-Jun-23 04:30N 25°48' W 080°15'0 0.0
2018-Jun-23 04:00N 25°48' W 080°15'0 0.0
2018-Jun-23 03:30N 25°48' W 080°15'0 0.0
2018-Jun-23 03:01N 25°48' W 080°15'0 0.0
2018-Jun-23 02:31N 25°48' W 080°15'0 0.0
2018-Jun-23 02:01N 25°48' W 080°15'0 0.0
2018-Jun-23 01:30N 25°48' W 080°15'0 0.0
2018-Jun-23 01:00N 25°48' W 080°15'0 0.1
2018-Jun-23 00:30N 25°48' W 080°15'0 0.0
2018-Jun-23 00:00N 25°48' W 080°15'0 0.0
2018-Jun-22 23:30N 25°48' W 080°15'0 0.0
2018-Jun-22 23:01N 25°48' W 080°15'0 0.0
2018-Jun-22 22:30N 25°48' W 080°15'0 0.0
2018-Jun-22 22:01N 25°48' W 080°15'0 0.0
2018-Jun-22 21:31N 25°48' W 080°15'0 0.0
2018-Jun-22 21:01N 25°48' W 080°15'0 0.0
2018-Jun-22 20:31N 25°48' W 080°15'0 0.0
2018-Jun-22 20:00N 25°48' W 080°15'0 0.0
2018-Jun-22 19:30N 25°48' W 080°15'0 0.0
2018-Jun-22 19:00N 25°48' W 080°15'0 0.0
2018-Jun-22 18:30N 25°48' W 080°15'0 0.0
2018-Jun-22 18:01N 25°48' W 080°15'0 0.0
2018-Jun-22 17:29N 25°48' W 080°15'0 0.0
2018-Jun-22 17:00N 25°48' W 080°15'0 0.0
2018-Jun-22 16:30N 25°48' W 080°15'0 0.0
2018-Jun-22 16:00N 25°48' W 080°15'0 0.0
2018-Jun-22 15:30N 25°48' W 080°15'0 0.0
2018-Jun-22 15:00N 25°48' W 080°15'0 0.0
2018-Jun-22 14:30N 25°48' W 080°15'0 0.0
2018-Jun-22 14:00N 25°48' W 080°15'0 0.0
2018-Jun-22 13:30N 25°48' W 080°15'0 0.0
2018-Jun-22 13:00N 25°48' W 080°15'0 0.0
2018-Jun-22 12:30N 25°48' W 080°15'0 0.0
2018-Jun-22 12:00N 25°48' W 080°15'0 0.0
2018-Jun-22 11:30N 25°48' W 080°15'0 0.0
2018-Jun-22 11:00N 25°48' W 080°15'0 0.1
2018-Jun-22 10:30N 25°48' W 080°15'0 0.1
2018-Jun-22 10:00N 25°48' W 080°15'1 1.9
2018-Jun-22 09:30N 25°47' W 080°14'2 3.1
2018-Jun-22 09:00N 25°47' W 080°12'1 2.7
2018-Jun-22 08:30N 25°46' W 080°11'4 7.7
2018-Jun-22 08:00N 25°45' W 080°07'5 9.1
2018-Jun-22 07:30N 25°43' W 080°03'714.0
2018-Jun-22 07:00N 25°36' W 079°60'714.1
2018-Jun-22 06:30N 25°30' W 079°56'814.6
2018-Jun-22 05:59N 25°23' W 079°53'  
2018-Jun-16 21:38N 25°11' W 079°44'2 9.7
2018-Jun-16 21:27N 25°13' W 079°45'8 9.2
2018-Jun-16 20:36N 25°20' W 079°49'2 9.0
2018-Jun-16 20:23N 25°22' W 079°50'3 9.0
2018-Jun-16 20:00N 25°25' W 079°51'4 8.7
2018-Jun-16 19:30N 25°28' W 079°54'4 8.5
2018-Jun-16 19:00N 25°32' W 079°56'4 8.5
2018-Jun-16 18:30N 25°36' W 079°58'4 8.7
2018-Jun-16 18:00N 25°40' W 080°00'4 8.9
2018-Jun-16 17:31N 25°44' W 080°02'4 7.4
2018-Jun-16 16:59N 25°46' W 080°06'4 8.7
2018-Jun-16 16:30N 25°46' W 080°11'1 2.3
2018-Jun-16 16:00N 25°46' W 080°12'2 3.2
2018-Jun-16 15:30N 25°47' W 080°14'1 2.4
2018-Jun-16 14:59N 25°48' W 080°15'0 0.0
2018-Jun-16 14:30N 25°48' W 080°15'0 0.0
2018-Jun-16 14:00N 25°48' W 080°15'0 0.0
2018-Jun-16 13:30N 25°48' W 080°15'0 0.0
2018-Jun-16 13:00N 25°48' W 080°15'0 0.0
2018-Jun-16 12:31N 25°48' W 080°15'0 0.0
2018-Jun-16 12:00N 25°48' W 080°15'0 0.0
2018-Jun-16 11:30N 25°48' W 080°15'0 0.0
2018-Jun-16 11:01N 25°48' W 080°15'0 0.0
2018-Jun-16 10:30N 25°48' W 080°15'0 0.0
2018-Jun-16 10:00N 25°48' W 080°15'0 0.0
2018-Jun-16 09:29N 25°48' W 080°15'0 0.0
2018-Jun-16 09:00N 25°48' W 080°15'0 0.0
2018-Jun-16 08:31N 25°48' W 080°15'0 0.0
2018-Jun-16 08:00N 25°48' W 080°15'0 0.0
2018-Jun-16 07:30N 25°48' W 080°15'0 0.0
2018-Jun-16 07:00N 25°48' W 080°15'0 0.0
2018-Jun-16 06:30N 25°48' W 080°15'0 0.0
2018-Jun-16 06:00N 25°48' W 080°15'0 0.0
2018-Jun-16 05:30N 25°48' W 080°15'0 0.0
2018-Jun-16 05:01N 25°48' W 080°15'0 0.0
2018-Jun-16 04:30N 25°48' W 080°15'0 0.0
2018-Jun-16 04:01N 25°48' W 080°15'0 0.0
2018-Jun-16 03:30N 25°48' W 080°15'0 0.0
2018-Jun-16 03:01N 25°48' W 080°15'0 0.0
2018-Jun-16 02:30N 25°48' W 080°15'0 0.0
2018-Jun-16 02:00N 25°48' W 080°15'0 0.0
2018-Jun-16 01:31N 25°48' W 080°15'0 0.0
2018-Jun-16 01:00N 25°48' W 080°15'0 0.0
2018-Jun-16 00:30N 25°48' W 080°15'0 0.0
2018-Jun-16 00:01N 25°48' W 080°15'0 0.0
2018-Jun-15 23:30N 25°48' W 080°15'0 0.0
2018-Jun-15 23:00N 25°48' W 080°15'0 0.0
2018-Jun-15 22:31N 25°48' W 080°15'0 0.0
2018-Jun-15 22:00N 25°48' W 080°15'0 0.0
2018-Jun-15 21:30N 25°48' W 080°15'0 0.0
2018-Jun-15 21:00N 25°48' W 080°15'0 0.0
2018-Jun-15 20:31N 25°48' W 080°15'0 0.0
2018-Jun-15 20:00N 25°48' W 080°15'0 0.0
2018-Jun-15 19:31N 25°48' W 080°15'0 0.0
2018-Jun-15 19:01N 25°48' W 080°15'0 0.0
2018-Jun-15 18:31N 25°48' W 080°15'0 0.0
2018-Jun-15 18:00N 25°48' W 080°15'0 0.0
2018-Jun-15 17:31N 25°48' W 080°15'0 0.0
2018-Jun-15 17:01N 25°48' W 080°15'0 0.0
2018-Jun-15 16:30N 25°48' W 080°15'0 0.0
2018-Jun-15 16:00N 25°48' W 080°15'0 0.0
2018-Jun-15 15:31N 25°48' W 080°15'0 0.0
2018-Jun-15 15:01N 25°48' W 080°15'0 0.0
2018-Jun-15 14:30N 25°48' W 080°15'0 0.0
2018-Jun-15 14:01N 25°48' W 080°15'0 0.0
2018-Jun-15 13:30N 25°48' W 080°15'0 0.0
2018-Jun-15 13:01N 25°48' W 080°15'1 2.5
2018-Jun-15 12:30N 25°47' W 080°14'2 3.3
2018-Jun-15 12:01N 25°46' W 080°12'2 3.0
2018-Jun-15 11:30N 25°46' W 080°10'4 7.7
2018-Jun-15 11:00N 25°46' W 080°06'3 5.9
2018-Jun-15 10:31N 25°44' W 080°04'5 9.2
2018-Jun-15 10:01N 25°40' W 080°01'510.1
2018-Jun-15 09:30N 25°35' W 079°59'611.3
2018-Jun-15 08:59N 25°30' W 079°56'  
Track history (hours):
 
Tides and Currents Weather Stations Pressure Air Temp Water Temp Dewpoint Dewpoint Depression Visibility Wind Speed Wind Dir Waves Ship Positions

Sara Regina

Last reported at 2018-Jun-24 01:47 UTC. Time now 2018-Jun-25 11:51 UTC.
Position N 25°27' W 079°53'.

Length 91 m; draft 3.9 m.

Type: Cargo ship. MMSI: 214182516.

Date/timePositionNaut miles runAvg speedWind from/ knotsBaromVisibWave heightAir tempDewpointWater temp
2018-Jun-24 01:47N 25°27' W 079°53'3 9.3
2018-Jun-24 01:30N 25°29' W 079°54'5 9.3
2018-Jun-24 01:00N 25°33' W 079°56'5 9.4
2018-Jun-24 00:30N 25°37' W 079°59'5 9.8
2018-Jun-24 00:00N 25°42' W 080°01'5 9.9
2018-Jun-23 23:30N 25°46' W 080°04'510.3
2018-Jun-23 23:01N 25°46' W 080°10'2 3.5
2018-Jun-23 22:30N 25°46' W 080°11'1 2.8
2018-Jun-23 22:00N 25°47' W 080°13'1 2.9
2018-Jun-23 21:31N 25°47' W 080°14'0 0.8
2018-Jun-23 21:01N 25°48' W 080°15'0 0.3
2018-Jun-23 20:30N 25°48' W 080°15'0 0.0
2018-Jun-23 20:00N 25°48' W 080°15'0 0.0
2018-Jun-23 19:30N 25°48' W 080°15'0 0.0
2018-Jun-23 19:00N 25°48' W 080°15'0 0.0
2018-Jun-23 18:30N 25°48' W 080°15'0 0.0
2018-Jun-23 18:00N 25°48' W 080°15'0 0.0
2018-Jun-23 17:30N 25°48' W 080°15'0 0.0
2018-Jun-23 17:00N 25°48' W 080°15'0 0.0
2018-Jun-23 16:30N 25°48' W 080°15'0 0.0
2018-Jun-23 16:00N 25°48' W 080°15'0 0.0
2018-Jun-23 15:30N 25°48' W 080°15'0 0.0
2018-Jun-23 15:00N 25°48' W 080°15'0 0.0
2018-Jun-23 14:29N 25°48' W 080°15'0 0.0
2018-Jun-23 14:00N 25°48' W 080°15'0 0.0
2018-Jun-23 13:30N 25°48' W 080°15'0 0.0
2018-Jun-23 13:00N 25°48' W 080°15'0 0.0
2018-Jun-23 12:30N 25°48' W 080°15'0 0.0
2018-Jun-23 12:01N 25°48' W 080°15'0 0.0
2018-Jun-23 11:30N 25°48' W 080°15'0 0.0
2018-Jun-23 11:01N 25°48' W 080°15'0 0.0
2018-Jun-23 10:30N 25°48' W 080°15'0 0.0
2018-Jun-23 10:00N 25°48' W 080°15'0 0.0
2018-Jun-23 09:30N 25°48' W 080°15'0 0.0
2018-Jun-23 09:00N 25°48' W 080°15'0 0.0
2018-Jun-23 08:30N 25°48' W 080°15'0 0.0
2018-Jun-23 08:00N 25°48' W 080°15'0 0.0
2018-Jun-23 07:30N 25°48' W 080°15'0 0.0
2018-Jun-23 07:00N 25°48' W 080°15'0 0.0
2018-Jun-23 06:30N 25°48' W 080°15'0 0.0
2018-Jun-23 06:00N 25°48' W 080°15'0 0.0
2018-Jun-23 05:30N 25°48' W 080°15'0 0.0
2018-Jun-23 05:00N 25°48' W 080°15'0 0.0
2018-Jun-23 04:30N 25°48' W 080°15'0 0.0
2018-Jun-23 04:00N 25°48' W 080°15'0 0.0
2018-Jun-23 03:30N 25°48' W 080°15'0 0.0
2018-Jun-23 03:01N 25°48' W 080°15'0 0.0
2018-Jun-23 02:31N 25°48' W 080°15'0 0.0
2018-Jun-23 02:01N 25°48' W 080°15'0 0.0
2018-Jun-23 01:30N 25°48' W 080°15'0 0.0
2018-Jun-23 01:00N 25°48' W 080°15'0 0.1
2018-Jun-23 00:30N 25°48' W 080°15'0 0.0
2018-Jun-23 00:00N 25°48' W 080°15'0 0.0
2018-Jun-22 23:30N 25°48' W 080°15'0 0.0
2018-Jun-22 23:01N 25°48' W 080°15'0 0.0
2018-Jun-22 22:30N 25°48' W 080°15'0 0.0
2018-Jun-22 22:01N 25°48' W 080°15'0 0.0
2018-Jun-22 21:31N 25°48' W 080°15'0 0.0
2018-Jun-22 21:01N 25°48' W 080°15'0 0.0
2018-Jun-22 20:31N 25°48' W 080°15'0 0.0
2018-Jun-22 20:00N 25°48' W 080°15'0 0.0
2018-Jun-22 19:30N 25°48' W 080°15'0 0.0
2018-Jun-22 19:00N 25°48' W 080°15'0 0.0
2018-Jun-22 18:30N 25°48' W 080°15'0 0.0
2018-Jun-22 18:01N 25°48' W 080°15'0 0.0
2018-Jun-22 17:29N 25°48' W 080°15'0 0.0
2018-Jun-22 17:00N 25°48' W 080°15'0 0.0
2018-Jun-22 16:30N 25°48' W 080°15'0 0.0
2018-Jun-22 16:00N 25°48' W 080°15'0 0.0
2018-Jun-22 15:30N 25°48' W 080°15'0 0.0
2018-Jun-22 15:00N 25°48' W 080°15'0 0.0
2018-Jun-22 14:30N 25°48' W 080°15'0 0.0
2018-Jun-22 14:00N 25°48' W 080°15'0 0.0
2018-Jun-22 13:30N 25°48' W 080°15'0 0.0
2018-Jun-22 13:00N 25°48' W 080°15'0 0.0
2018-Jun-22 12:30N 25°48' W 080°15'0 0.0
2018-Jun-22 12:00N 25°48' W 080°15'0 0.0
2018-Jun-22 11:30N 25°48' W 080°15'0 0.0
2018-Jun-22 11:00N 25°48' W 080°15'0 0.1
2018-Jun-22 10:30N 25°48' W 080°15'0 0.1
2018-Jun-22 10:00N 25°48' W 080°15'1 1.9
2018-Jun-22 09:30N 25°47' W 080°14'2 3.1
2018-Jun-22 09:00N 25°47' W 080°12'1 2.7
2018-Jun-22 08:30N 25°46' W 080°11'4 7.7
2018-Jun-22 08:00N 25°45' W 080°07'5 9.1
2018-Jun-22 07:30N 25°43' W 080°03'714.0
2018-Jun-22 07:00N 25°36' W 079°60'714.1
2018-Jun-22 06:30N 25°30' W 079°56'814.6
2018-Jun-22 05:59N 25°23' W 079°53'  
2018-Jun-16 21:38N 25°11' W 079°44'2 9.7
2018-Jun-16 21:27N 25°13' W 079°45'8 9.2
2018-Jun-16 20:36N 25°20' W 079°49'2 9.0
2018-Jun-16 20:23N 25°22' W 079°50'3 9.0
2018-Jun-16 20:00N 25°25' W 079°51'4 8.7
2018-Jun-16 19:30N 25°28' W 079°54'4 8.5
2018-Jun-16 19:00N 25°32' W 079°56'4 8.5
2018-Jun-16 18:30N 25°36' W 079°58'4 8.7
2018-Jun-16 18:00N 25°40' W 080°00'4 8.9
2018-Jun-16 17:31N 25°44' W 080°02'4 7.4
2018-Jun-16 16:59N 25°46' W 080°06'4 8.7
2018-Jun-16 16:30N 25°46' W 080°11'1 2.3
2018-Jun-16 16:00N 25°46' W 080°12'2 3.2
2018-Jun-16 15:30N 25°47' W 080°14'1 2.4
2018-Jun-16 14:59N 25°48' W 080°15'0 0.0
2018-Jun-16 14:30N 25°48' W 080°15'0 0.0
2018-Jun-16 14:00N 25°48' W 080°15'0 0.0
2018-Jun-16 13:30N 25°48' W 080°15'0 0.0
2018-Jun-16 13:00N 25°48' W 080°15'0 0.0
2018-Jun-16 12:31N 25°48' W 080°15'0 0.0
2018-Jun-16 12:00N 25°48' W 080°15'0 0.0
2018-Jun-16 11:30N 25°48' W 080°15'0 0.0
2018-Jun-16 11:01N 25°48' W 080°15'0 0.0
2018-Jun-16 10:30N 25°48' W 080°15'0 0.0
2018-Jun-16 10:00N 25°48' W 080°15'0 0.0
2018-Jun-16 09:29N 25°48' W 080°15'0 0.0
2018-Jun-16 09:00N 25°48' W 080°15'0 0.0
2018-Jun-16 08:31N 25°48' W 080°15'0 0.0
2018-Jun-16 08:00N 25°48' W 080°15'0 0.0
2018-Jun-16 07:30N 25°48' W 080°15'0 0.0
2018-Jun-16 07:00N 25°48' W 080°15'0 0.0
2018-Jun-16 06:30N 25°48' W 080°15'0 0.0
2018-Jun-16 06:00N 25°48' W 080°15'0 0.0
2018-Jun-16 05:30N 25°48' W 080°15'0 0.0
2018-Jun-16 05:01N 25°48' W 080°15'0 0.0
2018-Jun-16 04:30N 25°48' W 080°15'0 0.0
2018-Jun-16 04:01N 25°48' W 080°15'0 0.0
2018-Jun-16 03:30N 25°48' W 080°15'0 0.0
2018-Jun-16 03:01N 25°48' W 080°15'0 0.0
2018-Jun-16 02:30N 25°48' W 080°15'0 0.0
2018-Jun-16 02:00N 25°48' W 080°15'0 0.0
2018-Jun-16 01:31N 25°48' W 080°15'0 0.0
2018-Jun-16 01:00N 25°48' W 080°15'0 0.0
2018-Jun-16 00:30N 25°48' W 080°15'0 0.0
2018-Jun-16 00:01N 25°48' W 080°15'0 0.0
2018-Jun-15 23:30N 25°48' W 080°15'0 0.0
2018-Jun-15 23:00N 25°48' W 080°15'0 0.0
2018-Jun-15 22:31N 25°48' W 080°15'0 0.0
2018-Jun-15 22:00N 25°48' W 080°15'0 0.0
2018-Jun-15 21:30N 25°48' W 080°15'0 0.0
2018-Jun-15 21:00N 25°48' W 080°15'0 0.0
2018-Jun-15 20:31N 25°48' W 080°15'0 0.0
2018-Jun-15 20:00N 25°48' W 080°15'0 0.0
2018-Jun-15 19:31N 25°48' W 080°15'0 0.0
2018-Jun-15 19:01N 25°48' W 080°15'0 0.0
2018-Jun-15 18:31N 25°48' W 080°15'0 0.0
2018-Jun-15 18:00N 25°48' W 080°15'0 0.0
2018-Jun-15 17:31N 25°48' W 080°15'0 0.0
2018-Jun-15 17:01N 25°48' W 080°15'0 0.0
2018-Jun-15 16:30N 25°48' W 080°15'0 0.0
2018-Jun-15 16:00N 25°48' W 080°15'0 0.0
2018-Jun-15 15:31N 25°48' W 080°15'0 0.0
2018-Jun-15 15:01N 25°48' W 080°15'0 0.0
2018-Jun-15 14:30N 25°48' W 080°15'0 0.0
2018-Jun-15 14:01N 25°48' W 080°15'0 0.0
2018-Jun-15 13:30N 25°48' W 080°15'0 0.0
2018-Jun-15 13:01N 25°48' W 080°15'1 2.5
2018-Jun-15 12:30N 25°47' W 080°14'2 3.3
2018-Jun-15 12:01N 25°46' W 080°12'2 3.0
2018-Jun-15 11:30N 25°46' W 080°10'4 7.7
2018-Jun-15 11:00N 25°46' W 080°06'3 5.9
2018-Jun-15 10:31N 25°44' W 080°04'5 9.2
2018-Jun-15 10:01N 25°40' W 080°01'510.1
2018-Jun-15 09:30N 25°35' W 079°59'611.3
2018-Jun-15 08:59N 25°30' W 079°56'  

Dump ship's entire track history